Time;durP1;ratioP1;P1;durP2;ratioP2;P2;SDS_P1;SDS_P2;PMS_P1;PMS_P2;Temp;Humidity;BMP_temperature;BMP_pressure;BME280_temperature;BME280_humidity;BME280_pressure;Samples;Min_cycle;Max_cycle;Signal;HPM_P1;HPM_P2
2021/04/10 00:01:54;;;;;;;;;;;12.20;59.60;;;;;;5047715;28;19913;-67
2021/04/10 00:04:19;;;;;;;;;;;12.20;59.60;;;;;;5040587;28;19920;-68
2021/04/10 00:06:45;;;;;;;;;;;12.10;59.80;;;;;;5048034;28;19917;-68
2021/04/10 00:09:10;;;;;;;;;;;12.10;60.00;;;;;;5053037;28;19925;-68
2021/04/10 00:11:36;;;;;;;;;;;12.10;60.00;;;;;;5053978;28;19923;-68
2021/04/10 00:14:09;;;;;;;;;;;12.10;60.10;;;;;;5043380;28;20313;-68
2021/04/10 00:16:36;;;;;;;;;;;12.10;60.10;;;;;;5037659;28;20397;-67
2021/04/10 00:19:02;;;;;;;;;;;12.10;59.80;;;;;;5038454;28;20047;-69
2021/04/10 00:21:27;;;;;;;;;;;12.10;60.00;;;;;;5046670;28;20302;-68
2021/04/10 00:23:53;;;;;;;;;;;12.00;60.20;;;;;;5039069;28;19920;-68
2021/04/10 00:26:19;;;;;;;;;;;12.00;59.90;;;;;;5051946;28;19913;-69
2021/04/10 00:28:44;;;;;;;;;;;12.00;59.90;;;;;;5050639;28;19912;-67
2021/04/10 00:31:10;;;;;;;;;;;12.00;60.20;;;;;;5056729;28;19920;-67
2021/04/10 00:33:39;;;;;;;;;;;11.90;60.30;;;;;;5046452;28;19999;-67
2021/04/10 00:36:05;;;;;;;;;;;11.90;60.30;;;;;;5049193;28;19916;-68
2021/04/10 00:38:31;;;;;;;;;;;11.70;60.70;;;;;;5051343;28;19965;-67
2021/04/10 00:40:57;;;;;;;;;;;11.70;60.90;;;;;;5044723;28;19921;-67
2021/04/10 00:43:24;;;;;;;;;;;11.60;61.00;;;;;;5042160;28;19920;-66
2021/04/10 00:45:50;;;;;;;;;;;11.50;61.20;;;;;;5040502;28;20296;-67
2021/04/10 00:48:15;;;;;;;;;;;11.60;61.10;;;;;;5056849;28;19939;-68
2021/04/10 00:50:41;;;;;;;;;;;11.50;61.30;;;;;;5056817;28;20237;-67
2021/04/10 00:53:06;;;;;;;;;;;11.40;61.50;;;;;;5049018;28;19945;-68
2021/04/10 00:55:33;;;;;;;;;;;11.40;61.80;;;;;;5041330;28;20321;-68
2021/04/10 00:57:59;;;;;;;;;;;11.40;61.90;;;;;;5056036;28;19916;-68
2021/04/10 01:00:24;;;;;;;;;;;11.30;62.00;;;;;;5049628;28;19956;-68
2021/04/10 01:02:50;;;;;;;;;;;11.50;61.80;;;;;;5057143;28;19917;-67
2021/04/10 01:05:16;;;;;;;;;;;11.50;61.70;;;;;;5048772;28;20306;-67
2021/04/10 01:07:42;;;;;;;;;;;11.40;61.90;;;;;;5053454;28;19917;-67
2021/04/10 01:10:08;;;;;;;;;;;11.40;62.00;;;;;;5051658;28;19913;-67
2021/04/10 01:12:52;;;;;;;;;;;11.50;62.00;;;;;;5047252;28;19916;-67
2021/04/10 01:15:24;;;;;;;;;;;11.50;61.90;;;;;;5039246;28;19917;-67
2021/04/10 01:18:03;;;;;;;;;;;11.50;61.90;;;;;;5036805;28;19967;-68
2021/04/10 01:20:32;;;;;;;;;;;11.50;62.10;;;;;;5052617;28;20391;-68
2021/04/10 01:23:13;;;;;;;;;;;11.50;62.10;;;;;;5054062;28;19917;-68
2021/04/10 01:25:57;;;;;;;;;;;11.40;62.30;;;;;;5048735;28;19939;-67
2021/04/10 01:28:41;;;;;;;;;;;11.40;62.30;;;;;;5045908;28;19991;-66
2021/04/10 01:31:08;;;;;;;;;;;11.40;62.10;;;;;;5037533;28;19917;-67
2021/04/10 01:33:36;;;;;;;;;;;11.40;62.20;;;;;;5037978;28;20008;-67
2021/04/10 01:36:02;;;;;;;;;;;11.30;62.50;;;;;;5070563;28;20271;-67
2021/04/10 01:38:29;;;;;;;;;;;11.20;62.50;;;;;;5044084;28;19913;-67
2021/04/10 01:40:56;;;;;;;;;;;11.10;62.80;;;;;;5043267;28;19913;-67
2021/04/10 01:43:22;;;;;;;;;;;11.10;62.60;;;;;;5049738;28;20650;-67
2021/04/10 01:45:49;;;;;;;;;;;11.00;62.60;;;;;;5052911;28;19913;-67
2021/04/10 01:48:15;;;;;;;;;;;10.90;62.90;;;;;;5048075;28;20218;-66
2021/04/10 01:50:41;;;;;;;;;;;10.90;62.80;;;;;;5048199;28;19921;-67
2021/04/10 01:53:08;;;;;;;;;;;11.00;62.50;;;;;;5047879;28;19942;-68
2021/04/10 01:55:37;;;;;;;;;;;11.00;62.50;;;;;;5044883;28;19913;-68
2021/04/10 01:58:03;;;;;;;;;;;10.80;62.70;;;;;;5055667;28;19970;-67
2021/04/10 02:00:30;;;;;;;;;;;10.80;63.00;;;;;;5050867;28;19967;-68
2021/04/10 02:02:56;;;;;;;;;;;10.80;62.50;;;;;;5050022;28;19917;-67
2021/04/10 02:05:23;;;;;;;;;;;10.80;62.70;;;;;;5053852;28;19917;-68
2021/04/10 02:07:49;;;;;;;;;;;10.80;62.50;;;;;;5039517;28;19913;-68
2021/04/10 02:10:16;;;;;;;;;;;10.80;62.60;;;;;;5039258;28;19913;-66
2021/04/10 02:12:43;;;;;;;;;;;10.70;62.60;;;;;;5052702;28;19951;-66
2021/04/10 02:15:09;;;;;;;;;;;10.80;62.30;;;;;;5044392;28;19917;-68
2021/04/10 02:17:35;;;;;;;;;;;10.80;62.40;;;;;;5044589;28;19921;-68
2021/04/10 02:20:00;;;;;;;;;;;10.80;62.30;;;;;;5037026;28;19917;-69
2021/04/10 02:22:32;;;;;;;;;;;10.70;62.10;;;;;;5034863;28;20648;-68
2021/04/10 02:24:58;;;;;;;;;;;10.70;62.40;;;;;;5037662;28;20058;-69
2021/04/10 02:27:23;;;;;;;;;;;10.70;62.50;;;;;;5047080;28;20003;-69
2021/04/10 02:29:49;;;;;;;;;;;10.50;62.90;;;;;;5036975;28;19913;-69
2021/04/10 02:32:21;;;;;;;;;;;10.50;62.80;;;;;;5037789;28;19925;-69
2021/04/10 02:34:49;;;;;;;;;;;10.50;63.00;;;;;;5052057;28;19923;-69
2021/04/10 02:37:16;;;;;;;;;;;10.50;63.20;;;;;;5053247;28;19919;-69
2021/04/10 02:39:43;;;;;;;;;;;10.40;63.30;;;;;;5053198;28;19920;-69
2021/04/10 02:42:10;;;;;;;;;;;10.40;63.50;;;;;;5048710;28;19974;-69
2021/04/10 02:44:39;;;;;;;;;;;10.40;63.60;;;;;;5036907;28;19913;-69
2021/04/10 02:47:08;;;;;;;;;;;10.40;63.50;;;;;;5042562;28;19917;-69
2021/04/10 02:49:36;;;;;;;;;;;10.50;63.20;;;;;;5043054;28;19913;-69
2021/04/10 02:52:03;;;;;;;;;;;10.50;63.10;;;;;;5049669;28;20055;-69
2021/04/10 02:54:30;;;;;;;;;;;10.40;63.10;;;;;;5054232;28;19919;-69
2021/04/10 02:57:04;;;;;;;;;;;10.30;63.50;;;;;;5049608;28;19923;-69
2021/04/10 02:59:31;;;;;;;;;;;10.20;63.30;;;;;;5055050;28;19919;-69
2021/04/10 03:01:57;;;;;;;;;;;10.20;63.10;;;;;;5041317;28;19948;-69
2021/04/10 03:04:23;;;;;;;;;;;10.10;63.30;;;;;;5036627;28;20326;-69
2021/04/10 03:06:49;;;;;;;;;;;10.10;62.90;;;;;;5050532;28;19919;-69
2021/04/10 03:09:15;;;;;;;;;;;10.10;63.00;;;;;;5046949;28;20008;-69
2021/04/10 03:11:41;;;;;;;;;;;10.10;62.90;;;;;;5050111;28;20014;-68
2021/04/10 03:14:08;;;;;;;;;;;10.10;63.00;;;;;;5051635;28;19913;-69
2021/04/10 03:16:34;;;;;;;;;;;10.00;63.00;;;;;;5050129;28;19928;-69
2021/04/10 03:19:00;;;;;;;;;;;10.10;63.10;;;;;;5048429;28;19913;-69
2021/04/10 03:21:26;;;;;;;;;;;10.00;63.30;;;;;;5055505;28;19913;-69
2021/04/10 03:23:51;;;;;;;;;;;9.90;63.20;;;;;;5041711;28;19924;-69
2021/04/10 03:26:18;;;;;;;;;;;10.00;63.10;;;;;;5051288;28;19914;-69
2021/04/10 03:28:44;;;;;;;;;;;10.10;63.30;;;;;;5039437;28;19948;-69
2021/04/10 03:31:10;;;;;;;;;;;10.10;63.00;;;;;;5046823;28;19924;-69
2021/04/10 03:33:36;;;;;;;;;;;10.00;63.20;;;;;;5052930;28;19913;-69
2021/04/10 03:36:02;;;;;;;;;;;10.00;63.20;;;;;;5052766;28;20054;-69
2021/04/10 03:38:28;;;;;;;;;;;10.00;63.30;;;;;;5050377;28;20222;-69
2021/04/10 03:40:54;;;;;;;;;;;10.00;63.40;;;;;;5054811;28;19912;-68
2021/04/10 03:43:19;;;;;;;;;;;10.00;63.50;;;;;;5052544;28;19917;-69
2021/04/10 03:45:45;;;;;;;;;;;9.90;63.70;;;;;;5054522;28;20328;-69
2021/04/10 03:48:12;;;;;;;;;;;9.90;63.70;;;;;;5056807;28;19913;-69
2021/04/10 03:50:38;;;;;;;;;;;10.00;63.70;;;;;;5038779;28;19961;-69
2021/04/10 03:53:03;;;;;;;;;;;10.00;63.70;;;;;;5045744;28;19924;-69
2021/04/10 03:55:29;;;;;;;;;;;10.00;63.80;;;;;;5049038;28;19913;-69
2021/04/10 03:57:54;;;;;;;;;;;10.00;63.70;;;;;;5062523;28;19912;-68
2021/04/10 04:00:20;;;;;;;;;;;10.10;63.60;;;;;;5052003;28;19917;-69
2021/04/10 04:02:46;;;;;;;;;;;10.10;63.70;;;;;;5038471;28;19916;-68
2021/04/10 04:05:12;;;;;;;;;;;10.10;63.60;;;;;;5044891;28;19921;-68
2021/04/10 04:07:37;;;;;;;;;;;10.10;63.50;;;;;;5049020;28;20011;-68
2021/04/10 04:10:03;;;;;;;;;;;10.10;63.80;;;;;;5055031;28;19913;-69
2021/04/10 04:12:29;;;;;;;;;;;10.10;63.80;;;;;;5057876;28;20328;-69
2021/04/10 04:14:54;;;;;;;;;;;10.10;63.80;;;;;;5044251;28;19914;-70
2021/04/10 04:17:20;;;;;;;;;;;10.10;63.80;;;;;;5057869;28;19929;-69
2021/04/10 04:19:46;;;;;;;;;;;10.10;63.80;;;;;;5043512;28;20039;-69
2021/04/10 04:22:14;;;;;;;;;;;10.10;64.00;;;;;;5052031;28;19920;-69
2021/04/10 04:24:39;;;;;;;;;;;10.10;64.20;;;;;;5046402;28;19913;-69
2021/04/10 04:27:08;;;;;;;;;;;10.10;64.30;;;;;;5039114;28;20023;-69
2021/04/10 04:29:34;;;;;;;;;;;10.00;64.60;;;;;;5041861;28;19916;-68
2021/04/10 04:31:59;;;;;;;;;;;10.00;64.70;;;;;;5057132;28;19962;-67
2021/04/10 04:34:25;;;;;;;;;;;9.90;65.20;;;;;;5043468;28;19912;-67
2021/04/10 04:36:50;;;;;;;;;;;9.90;65.30;;;;;;5037962;28;19953;-67
2021/04/10 04:39:16;;;;;;;;;;;9.90;65.20;;;;;;5051849;28;19913;-67
2021/04/10 04:41:44;;;;;;;;;;;9.90;66.40;;;;;;5057348;28;19958;-69
2021/04/10 04:44:13;;;;;;;;;;;9.70;67.10;;;;;;5042941;28;19939;-69
2021/04/10 04:46:38;;;;;;;;;;;9.60;68.00;;;;;;5042631;28;19923;-69
2021/04/10 04:49:04;;;;;;;;;;;9.50;68.00;;;;;;5057441;28;20306;-69
2021/04/10 04:51:31;;;;;;;;;;;9.40;69.00;;;;;;5056250;28;20341;-69
2021/04/10 04:53:57;;;;;;;;;;;9.40;69.20;;;;;;5048569;28;20375;-70
2021/04/10 04:56:22;;;;;;;;;;;9.30;70.20;;;;;;5047607;28;19912;-70
2021/04/10 04:58:48;;;;;;;;;;;9.30;70.70;;;;;;5044314;28;19913;-69
2021/04/10 05:01:13;;;;;;;;;;;9.20;72.30;;;;;;5047424;28;20220;-69
2021/04/10 05:03:39;;;;;;;;;;;9.00;72.20;;;;;;5042540;28;20007;-69
2021/04/10 05:06:05;;;;;;;;;;;8.80;74.30;;;;;;5043552;28;19921;-69
2021/04/10 05:08:31;;;;;;;;;;;8.60;74.80;;;;;;5042362;28;19913;-69
2021/04/10 05:10:56;;;;;;;;;;;8.50;76.70;;;;;;5047870;28;19939;-70
2021/04/10 05:13:22;;;;;;;;;;;8.30;77.20;;;;;;5055038;28;20306;-69
2021/04/10 05:15:48;;;;;;;;;;;8.30;78.00;;;;;;5056087;28;19913;-69
2021/04/10 05:18:14;;;;;;;;;;;8.20;77.50;;;;;;5053491;28;20275;-68
2021/04/10 05:20:39;;;;;;;;;;;8.10;78.20;;;;;;5047051;28;19921;-70
2021/04/10 05:23:05;;;;;;;;;;;8.20;77.50;;;;;;5036013;28;19913;-70
2021/04/10 05:25:31;;;;;;;;;;;8.20;77.50;;;;;;5047790;28;20328;-70
2021/04/10 05:27:56;;;;;;;;;;;8.20;77.70;;;;;;5049737;28;20008;-72
2021/04/10 05:30:22;;;;;;;;;;;8.20;78.10;;;;;;5052830;28;19920;-70
2021/04/10 05:32:48;;;;;;;;;;;8.20;78.10;;;;;;5063147;28;19960;-70
2021/04/10 05:35:15;;;;;;;;;;;8.10;79.00;;;;;;5042841;28;20385;-70
2021/04/10 05:37:40;;;;;;;;;;;8.10;79.00;;;;;;5045084;28;19917;-69
2021/04/10 05:40:06;;;;;;;;;;;8.10;79.50;;;;;;5048988;28;19913;-70
2021/04/10 05:42:32;;;;;;;;;;;8.10;80.30;;;;;;5053279;28;20332;-70
2021/04/10 05:44:57;;;;;;;;;;;7.90;81.10;;;;;;5050661;28;19913;-70
2021/04/10 05:47:23;;;;;;;;;;;7.90;82.20;;;;;;5055013;28;19931;-70
2021/04/10 05:49:49;;;;;;;;;;;7.90;81.90;;;;;;5053978;28;19917;-71
2021/04/10 05:52:15;;;;;;;;;;;7.90;82.60;;;;;;5052844;28;19924;-71
2021/04/10 05:54:43;;;;;;;;;;;7.80;84.20;;;;;;5050163;28;19948;-71
2021/04/10 05:57:08;;;;;;;;;;;7.70;83.80;;;;;;5044325;28;19936;-71
2021/04/10 05:59:34;;;;;;;;;;;7.70;84.40;;;;;;5055128;28;20325;-71
2021/04/10 06:02:05;;;;;;;;;;;7.60;86.40;;;;;;5041628;28;20234;-71
2021/04/10 06:04:30;;;;;;;;;;;7.50;86.00;;;;;;5053096;28;19913;-71
2021/04/10 06:06:56;;;;;;;;;;;7.60;83.00;;;;;;5054942;28;19919;-70
2021/04/10 06:09:21;;;;;;;;;;;7.70;83.40;;;;;;5052644;28;19920;-71
2021/04/10 06:11:47;;;;;;;;;;;7.70;83.70;;;;;;5046820;28;19925;-70
2021/04/10 06:14:13;;;;;;;;;;;7.70;84.20;;;;;;5049208;28;20325;-70
2021/04/10 06:16:39;;;;;;;;;;;7.80;82.70;;;;;;5048145;28;20016;-69
2021/04/10 06:19:05;;;;;;;;;;;7.90;82.80;;;;;;5053235;28;19913;-71
2021/04/10 06:21:30;;;;;;;;;;;7.90;83.90;;;;;;5053880;28;19939;-71
2021/04/10 06:23:56;;;;;;;;;;;7.70;85.40;;;;;;5053282;28;19967;-69
2021/04/10 06:26:21;;;;;;;;;;;7.70;85.40;;;;;;5049049;28;20006;-69
2021/04/10 06:28:47;;;;;;;;;;;7.80;82.30;;;;;;5054145;28;20301;-71
2021/04/10 06:31:12;;;;;;;;;;;7.80;82.30;;;;;;5056108;28;19947;-70
2021/04/10 06:33:38;;;;;;;;;;;7.90;82.70;;;;;;5061912;28;19916;-71
2021/04/10 06:36:04;;;;;;;;;;;8.00;83.00;;;;;;5074797;28;20003;-69
2021/04/10 06:38:29;;;;;;;;;;;8.10;82.00;;;;;;5047745;28;20064;-69
2021/04/10 06:40:56;;;;;;;;;;;8.20;80.80;;;;;;5037452;28;19992;-70
2021/04/10 06:43:22;;;;;;;;;;;8.20;80.70;;;;;;5054727;28;19916;-71
2021/04/10 06:45:47;;;;;;;;;;;8.30;81.10;;;;;;5055102;28;20014;-70
2021/04/10 06:48:13;;;;;;;;;;;8.30;81.50;;;;;;5044817;28;19917;-71
2021/04/10 06:50:43;;;;;;;;;;;8.40;80.10;;;;;;5048250;28;19917;-71
2021/04/10 06:53:13;;;;;;;;;;;8.50;80.90;;;;;;5053495;28;19917;-70
2021/04/10 06:55:41;;;;;;;;;;;8.50;81.30;;;;;;5054963;28;19916;-71
2021/04/10 06:58:08;;;;;;;;;;;8.50;82.50;;;;;;5082861;28;19970;-70
2021/04/10 07:00:34;;;;;;;;;;;8.50;81.70;;;;;;5042719;28;20298;-71
2021/04/10 07:03:01;;;;;;;;;;;8.60;80.20;;;;;;5040986;28;20015;-70
2021/04/10 07:05:30;;;;;;;;;;;8.70;80.00;;;;;;5051376;28;19967;-70
2021/04/10 07:07:58;;;;;;;;;;;8.70;80.50;;;;;;5045758;28;19940;-70
2021/04/10 07:10:24;;;;;;;;;;;8.70;80.20;;;;;;5056372;28;19913;-70
2021/04/10 07:12:49;;;;;;;;;;;8.70;80.80;;;;;;5055359;28;20321;-70
2021/04/10 07:15:15;;;;;;;;;;;8.80;80.40;;;;;;5040788;28;20341;-70
2021/04/10 07:17:41;;;;;;;;;;;8.80;79.60;;;;;;5040501;28;20225;-70
2021/04/10 07:20:23;;;;;;;;;;;9.00;78.60;;;;;;5051769;28;19913;-71
2021/04/10 07:22:59;;;;;;;;;;;9.10;78.20;;;;;;5056663;28;19944;-69
2021/04/10 07:25:28;;;;;;;;;;;9.10;78.80;;;;;;5048319;28;19913;-68
2021/04/10 07:27:54;;;;;;;;;;;9.20;79.30;;;;;;5057301;28;19917;-69
2021/04/10 07:30:20;;;;;;;;;;;9.20;79.00;;;;;;5088954;28;20386;-68
2021/04/10 07:32:45;;;;;;;;;;;9.20;78.70;;;;;;5047299;28;19913;-68
2021/04/10 07:35:15;;;;;;;;;;;9.30;78.90;;;;;;5041167;28;19913;-69
2021/04/10 07:37:47;;;;;;;;;;;9.40;78.00;;;;;;5057008;28;20328;-70
2021/04/10 07:40:13;;;;;;;;;;;9.60;78.10;;;;;;5056626;28;19932;-71
2021/04/10 07:42:40;;;;;;;;;;;9.80;76.40;;;;;;5058716;28;19909;-69
2021/04/10 07:45:22;;;;;;;;;;;9.90;77.40;;;;;;5050908;28;19913;-70
2021/04/10 07:47:48;;;;;;;;;;;9.90;76.80;;;;;;5038796;28;20226;-70
2021/04/10 07:50:16;;;;;;;;;;;9.90;77.20;;;;;;5053710;28;20336;-69
2021/04/10 07:52:41;;;;;;;;;;;10.00;76.10;;;;;;5057186;28;19956;-70
2021/04/10 07:55:07;;;;;;;;;;;9.80;76.50;;;;;;5056861;28;20258;-70
2021/04/10 07:57:33;;;;;;;;;;;9.70;76.90;;;;;;5058014;28;19994;-70
2021/04/10 08:00:04;;;;;;;;;;;9.70;78.10;;;;;;5065430;28;19978;-70
2021/04/10 08:02:34;;;;;;;;;;;9.60;77.10;;;;;;5040035;28;19921;-69
2021/04/10 08:05:03;;;;;;;;;;;9.60;77.60;;;;;;5056331;28;20403;-69
2021/04/10 08:07:29;;;;;;;;;;;9.50;77.60;;;;;;5043205;28;19917;-70
2021/04/10 08:10:06;;;;;;;;;;;9.50;77.50;;;;;;5049167;28;19913;-70
2021/04/10 08:12:33;;;;;;;;;;;9.40;78.10;;;;;;5058133;28;19919;-69
2021/04/10 08:14:59;;;;;;;;;;;9.50;78.10;;;;;;5052795;28;19998;-69
2021/04/10 08:17:34;;;;;;;;;;;9.40;78.30;;;;;;5057449;28;19940;-70
2021/04/10 08:20:21;;;;;;;;;;;9.50;78.40;;;;;;5057972;28;20003;-70
2021/04/10 08:22:47;;;;;;;;;;;9.50;78.80;;;;;;5055331;28;19916;-70
2021/04/10 08:25:13;;;;;;;;;;;9.60;79.10;;;;;;5056552;28;20327;-70
2021/04/10 08:27:39;;;;;;;;;;;9.60;79.60;;;;;;5044061;28;19913;-70
2021/04/10 08:30:06;;;;;;;;;;;9.60;79.10;;;;;;5055703;28;19913;-69
2021/04/10 08:32:34;;;;;;;;;;;9.60;78.70;;;;;;5044441;28;20210;-70
2021/04/10 08:35:00;;;;;;;;;;;9.70;79.00;;;;;;5047486;28;19956;-70
2021/04/10 08:37:26;;;;;;;;;;;9.80;78.20;;;;;;5049786;28;19982;-71
2021/04/10 08:39:54;;;;;;;;;;;9.90;79.00;;;;;;5056046;28;19956;-69
2021/04/10 08:42:20;;;;;;;;;;;10.10;77.70;;;;;;5049421;28;19982;-70
2021/04/10 08:44:46;;;;;;;;;;;10.20;78.00;;;;;;5048758;28;19913;-70
2021/04/10 08:47:13;;;;;;;;;;;10.30;77.30;;;;;;5048432;28;20482;-69
2021/04/10 08:49:43;;;;;;;;;;;10.50;76.70;;;;;;5039004;28;19944;-69
2021/04/10 08:52:12;;;;;;;;;;;10.30;76.90;;;;;;5047957;28;19953;-69
2021/04/10 08:54:39;;;;;;;;;;;10.40;77.40;;;;;;5056625;28;19912;-69
2021/04/10 08:57:09;;;;;;;;;;;10.40;77.50;;;;;;5050258;28;19916;-70
2021/04/10 08:59:48;;;;;;;;;;;10.40;77.00;;;;;;5039969;28;19913;-70
2021/04/10 09:02:17;;;;;;;;;;;10.50;77.70;;;;;;5046780;28;20003;-70
2021/04/10 09:04:52;;;;;;;;;;;10.50;77.30;;;;;;5056612;28;19923;-70
2021/04/10 09:07:18;;;;;;;;;;;10.50;76.90;;;;;;5049011;28;20423;-70
2021/04/10 09:09:46;;;;;;;;;;;10.60;76.50;;;;;;5050242;28;19956;-70
2021/04/10 09:12:16;;;;;;;;;;;10.80;76.20;;;;;;5054623;28;19963;-70
2021/04/10 09:14:42;;;;;;;;;;;11.30;75.40;;;;;;5050666;28;20263;-70
2021/04/10 09:17:08;;;;;;;;;;;11.70;74.20;;;;;;5069667;28;19932;-70
2021/04/10 09:19:35;;;;;;;;;;;11.80;73.50;;;;;;5048114;28;19931;-69
2021/04/10 09:22:03;;;;;;;;;;;11.70;73.80;;;;;;5045776;28;19913;-69
2021/04/10 09:24:44;;;;;;;;;;;11.60;74.70;;;;;;5049882;28;20352;-71
2021/04/10 09:27:18;;;;;;;;;;;11.50;74.30;;;;;;5039863;28;19924;-70
2021/04/10 09:29:53;;;;;;;;;;;11.40;75.30;;;;;;5047563;28;21250;-70
2021/04/10 09:32:37;;;;;;;;;;;11.50;75.40;;;;;;5057139;28;19916;-70
2021/04/10 09:35:06;;;;;;;;;;;11.60;75.70;;;;;;5050855;28;20364;-70
2021/04/10 09:37:32;;;;;;;;;;;11.60;74.20;;;;;;5035688;28;20328;-70
2021/04/10 09:40:17;;;;;;;;;;;11.70;74.90;;;;;;5046967;28;19991;-70
2021/04/10 09:45:08;;;;;;;;;;;11.80;74.30;;;;;;5047842;28;20229;-70
2021/04/10 09:50:21;;;;;;;;;;;12.00;73.30;;;;;;5037382;28;19923;-70
2021/04/10 09:52:54;;;;;;;;;;;12.00;74.40;;;;;;5050484;28;19913;-70
2021/04/10 09:55:20;;;;;;;;;;;12.10;73.40;;;;;;5053451;28;19924;-70
2021/04/10 09:57:54;;;;;;;;;;;12.20;72.60;;;;;;5041397;28;19920;-69
2021/04/10 10:00:33;;;;;;;;;;;12.40;73.40;;;;;;5039567;28;19917;-71
2021/04/10 10:03:02;;;;;;;;;;;12.50;73.40;;;;;;5044905;28;20203;-70
2021/04/10 10:05:32;;;;;;;;;;;13.10;71.80;;;;;;5039602;28;19913;-71
2021/04/10 10:08:04;;;;;;;;;;;13.30;71.10;;;;;;5035123;28;19921;-70
2021/04/10 10:10:36;;;;;;;;;;;13.60;70.80;;;;;;5044952;28;19917;-70
2021/04/10 10:13:03;;;;;;;;;;;13.70;70.20;;;;;;5048486;28;19936;-70
2021/04/10 10:15:29;;;;;;;;;;;14.10;68.80;;;;;;5052037;28;19999;-70
2021/04/10 10:17:54;;;;;;;;;;;14.40;69.70;;;;;;5051891;28;20274;-69
2021/04/10 10:20:20;;;;;;;;;;;14.70;67.90;;;;;;5036923;28;19963;-69
2021/04/10 10:22:46;;;;;;;;;;;15.10;67.30;;;;;;5055675;28;19936;-68
2021/04/10 10:25:12;;;;;;;;;;;15.10;67.00;;;;;;5055923;28;19992;-68
2021/04/10 10:27:41;;;;;;;;;;;14.90;66.30;;;;;;5054582;28;19913;-68
2021/04/10 10:30:14;;;;;;;;;;;14.90;66.40;;;;;;5059461;28;19935;-69
2021/04/10 10:32:44;;;;;;;;;;;14.60;67.10;;;;;;5051295;28;19924;-70
2021/04/10 10:35:10;;;;;;;;;;;14.30;66.90;;;;;;5052121;28;19970;-70
2021/04/10 10:37:35;;;;;;;;;;;14.10;68.70;;;;;;5053191;28;20317;-69
2021/04/10 10:40:01;;;;;;;;;;;14.70;66.80;;;;;;5056423;28;19927;-68
2021/04/10 10:42:28;;;;;;;;;;;14.80;65.60;;;;;;5052121;28;20370;-69
2021/04/10 10:44:53;;;;;;;;;;;14.80;66.20;;;;;;5054844;28;20274;-70
2021/04/10 10:47:23;;;;;;;;;;;15.10;64.80;;;;;;5053702;28;20007;-69
2021/04/10 10:49:49;;;;;;;;;;;14.60;65.40;;;;;;5053703;28;19913;-69
2021/04/10 10:52:15;;;;;;;;;;;14.50;65.10;;;;;;5048385;28;19981;-69
2021/04/10 10:54:42;;;;;;;;;;;14.60;65.50;;;;;;5053752;28;19991;-69
2021/04/10 10:57:15;;;;;;;;;;;14.50;64.90;;;;;;5056951;28;19920;-69
2021/04/10 10:59:40;;;;;;;;;;;14.70;65.90;;;;;;5057023;28;19970;-68
2021/04/10 11:02:09;;;;;;;;;;;15.10;64.40;;;;;;5056995;28;19916;-68
2021/04/10 11:04:38;;;;;;;;;;;15.80;63.40;;;;;;5056235;28;19982;-68
2021/04/10 11:07:05;;;;;;;;;;;16.90;61.10;;;;;;5054990;28;20225;-69
2021/04/10 11:09:32;;;;;;;;;;;17.40;59.10;;;;;;5056835;28;19916;-70
2021/04/10 11:11:59;;;;;;;;;;;18.20;59.10;;;;;;5051351;28;19924;-69
2021/04/10 11:14:26;;;;;;;;;;;19.30;56.60;;;;;;5058747;28;20050;-68
2021/04/10 11:16:52;;;;;;;;;;;20.00;54.60;;;;;;5055913;28;20237;-68
2021/04/10 11:19:24;;;;;;;;;;;19.00;54.20;;;;;;5057585;28;19909;-68
2021/04/10 11:21:50;;;;;;;;;;;17.60;57.70;;;;;;5053881;28;19924;-69
2021/04/10 11:24:16;;;;;;;;;;;16.60;60.00;;;;;;5055578;28;19917;-68
2021/04/10 11:26:46;;;;;;;;;;;15.90;61.10;;;;;;5057024;28;19924;-68
2021/04/10 11:29:26;;;;;;;;;;;16.00;60.80;;;;;;5057335;28;19916;-69
2021/04/10 11:32:07;;;;;;;;;;;16.00;61.50;;;;;;5089682;28;19936;-66
2021/04/10 11:34:38;;;;;;;;;;;16.10;60.70;;;;;;5052516;28;19913;-68
2021/04/10 11:37:10;;;;;;;;;;;15.90;59.70;;;;;;5053501;28;20254;-67
2021/04/10 11:39:49;;;;;;;;;;;15.90;59.60;;;;;;5056617;28;20383;-69
2021/04/10 11:42:28;;;;;;;;;;;16.50;58.80;;;;;;5055475;28;19919;-68
2021/04/10 11:44:55;;;;;;;;;;;17.70;56.00;;;;;;5057076;28;19913;-70
2021/04/10 11:47:25;;;;;;;;;;;18.90;54.80;;;;;;5055915;28;19921;-68
2021/04/10 11:49:51;;;;;;;;;;;19.10;53.70;;;;;;5058580;28;19913;-69
2021/04/10 11:52:18;;;;;;;;;;;18.90;52.90;;;;;;5068617;23;20632;-70
2021/04/10 11:54:43;;;;;;;;;;;18.00;52.30;;;;;;5050747;28;19913;-69
2021/04/10 11:57:28;;;;;;;;;;;17.80;54.60;;;;;;5049205;28;19921;-70
2021/04/10 12:00:09;;;;;;;;;;;17.70;54.30;;;;;;5038537;28;19910;-68
2021/04/10 12:02:36;;;;;;;;;;;17.90;53.10;;;;;;5056731;28;19938;-68
2021/04/10 12:05:20;;;;;;;;;;;17.60;53.90;;;;;;5054031;28;19913;-67
2021/04/10 12:08:04;;;;;;;;;;;17.80;53.30;;;;;;5048234;28;19929;-69
2021/04/10 12:10:31;;;;;;;;;;;17.60;52.90;;;;;;5051531;28;19921;-69
2021/04/10 12:12:57;;;;;;;;;;;17.50;53.20;;;;;;5056128;28;19920;-69
2021/04/10 12:15:29;;;;;;;;;;;17.40;52.10;;;;;;5045971;28;19925;-70
2021/04/10 12:17:55;;;;;;;;;;;17.40;52.80;;;;;;5057500;28;19917;-69
2021/04/10 12:20:21;;;;;;;;;;;17.70;52.40;;;;;;5053616;28;19921;-70
2021/04/10 12:22:47;;;;;;;;;;;17.70;51.70;;;;;;5054645;28;20015;-70
2021/04/10 12:25:12;;;;;;;;;;;17.80;52.70;;;;;;5057403;28;19912;-70
2021/04/10 12:27:38;;;;;;;;;;;17.90;51.30;;;;;;5053164;28;19982;-69
2021/04/10 12:30:08;;;;;;;;;;;18.00;52.40;;;;;;5043637;28;19913;-68
2021/04/10 12:32:33;;;;;;;;;;;17.80;52.00;;;;;;5046796;28;19921;-70
2021/04/10 12:34:59;;;;;;;;;;;17.70;51.90;;;;;;5050259;28;19924;-69
2021/04/10 12:37:25;;;;;;;;;;;17.70;52.20;;;;;;5040626;28;19945;-68
2021/04/10 12:39:50;;;;;;;;;;;17.50;51.20;;;;;;5047889;28;19913;-69
2021/04/10 12:42:16;;;;;;;;;;;17.30;52.00;;;;;;5055983;28;19913;-68
2021/04/10 12:44:42;;;;;;;;;;;17.70;51.30;;;;;;5048204;28;20317;-68
2021/04/10 12:47:13;;;;;;;;;;;17.70;51.10;;;;;;5047181;28;19917;-68
2021/04/10 12:49:38;;;;;;;;;;;17.60;50.10;;;;;;5046653;28;20248;-68
2021/04/10 12:52:04;;;;;;;;;;;17.90;51.60;;;;;;5055011;28;19921;-68
2021/04/10 12:54:29;;;;;;;;;;;18.40;51.30;;;;;;5050401;28;19948;-68
2021/04/10 12:56:55;;;;;;;;;;;18.60;49.30;;;;;;5037492;28;19916;-68
2021/04/10 12:59:20;;;;;;;;;;;18.80;47.90;;;;;;5056460;28;19920;-69
2021/04/10 13:01:46;;;;;;;;;;;19.20;48.80;;;;;;5055291;28;19913;-68
2021/04/10 13:04:14;;;;;;;;;;;18.90;49.10;;;;;;5055391;28;19917;-69
2021/04/10 13:06:43;;;;;;;;;;;18.50;49.10;;;;;;5045176;28;19945;-69
2021/04/10 13:09:08;;;;;;;;;;;18.10;49.80;;;;;;5040046;28;20198;-69
2021/04/10 13:11:34;;;;;;;;;;;17.90;50.00;;;;;;5037141;28;19920;-69
2021/04/10 13:13:59;;;;;;;;;;;18.20;49.70;;;;;;5047159;28;19925;-70
2021/04/10 13:16:25;;;;;;;;;;;18.60;49.30;;;;;;5041448;28;19913;-69
2021/04/10 13:18:50;;;;;;;;;;;18.60;48.20;;;;;;5037963;28;19928;-69
2021/04/10 13:21:16;;;;;;;;;;;18.50;47.20;;;;;;5037053;28;19948;-69
2021/04/10 13:23:41;;;;;;;;;;;18.30;48.90;;;;;;5036702;28;19913;-70
2021/04/10 13:26:07;;;;;;;;;;;18.30;48.00;;;;;;5047340;28;19917;-68
2021/04/10 13:28:34;;;;;;;;;;;18.50;48.20;;;;;;5052593;28;20276;-69
2021/04/10 13:31:00;;;;;;;;;;;19.20;48.10;;;;;;5044327;28;19921;-69
2021/04/10 13:33:26;;;;;;;;;;;19.90;46.20;;;;;;5054841;28;19919;-68
2021/04/10 13:35:51;;;;;;;;;;;20.40;45.30;;;;;;5047714;28;19966;-69
2021/04/10 13:38:17;;;;;;;;;;;20.70;44.80;;;;;;5043295;28;19913;-69
2021/04/10 13:40:42;;;;;;;;;;;20.40;45.20;;;;;;5049337;28;19963;-69
2021/04/10 13:43:08;;;;;;;;;;;19.90;46.90;;;;;;5050690;28;19944;-70
2021/04/10 13:45:34;;;;;;;;;;;20.30;45.60;;;;;;5054337;28;19939;-70
2021/04/10 13:48:00;;;;;;;;;;;20.40;46.70;;;;;;5044451;28;19919;-70
2021/04/10 13:50:25;;;;;;;;;;;20.70;49.00;;;;;;5036054;28;20004;-69
2021/04/10 13:52:51;;;;;;;;;;;21.30;48.00;;;;;;5034648;28;20256;-70
2021/04/10 13:55:16;;;;;;;;;;;21.10;44.90;;;;;;5053799;28;19936;-70
2021/04/10 13:57:45;;;;;;;;;;;20.80;46.00;;;;;;5049443;28;19940;-70
2021/04/10 14:00:11;;;;;;;;;;;21.10;45.80;;;;;;5054839;28;20364;-70
2021/04/10 14:02:36;;;;;;;;;;;21.00;45.30;;;;;;5042992;28;19971;-70
2021/04/10 14:05:07;;;;;;;;;;;20.60;45.50;;;;;;5046068;28;19948;-68
2021/04/10 14:07:34;;;;;;;;;;;19.90;48.10;;;;;;5060167;28;19920;-68
2021/04/10 14:10:00;;;;;;;;;;;19.80;47.70;;;;;;5051871;28;19927;-69
2021/04/10 14:12:26;;;;;;;;;;;19.60;48.50;;;;;;5049321;28;20058;-69
2021/04/10 14:14:52;;;;;;;;;;;19.70;49.40;;;;;;5050920;28;20323;-70
2021/04/10 14:17:18;;;;;;;;;;;20.10;48.70;;;;;;5052309;28;20225;-69
2021/04/10 14:19:43;;;;;;;;;;;21.10;47.60;;;;;;5044551;28;19917;-69
2021/04/10 14:22:09;;;;;;;;;;;21.40;44.80;;;;;;5044190;28;19921;-70
2021/04/10 14:24:35;;;;;;;;;;;20.80;45.70;;;;;;5048414;28;19916;-68
2021/04/10 14:27:00;;;;;;;;;;;20.10;47.20;;;;;;5039184;28;19928;-68
2021/04/10 14:29:26;;;;;;;;;;;19.90;48.40;;;;;;5043960;28;19913;-68